createdAt,value
2023-02-06T00:01:45.476Z,103896.38
2023-02-06T00:04:16.163Z,103904.34
2023-02-06T00:06:43.946Z,103895.03
2023-02-06T00:09:11.043Z,103902.78
2023-02-06T00:11:38.035Z,103902.91
2023-02-06T00:14:05.912Z,103896.06
2023-02-06T00:16:34.075Z,103892.63
2023-02-06T00:19:01.402Z,103893.28
2023-02-06T00:21:29.835Z,103896.97
2023-02-06T00:23:58.804Z,103884.00
2023-02-06T00:26:26.100Z,103879.94
2023-02-06T00:28:53.214Z,103882.34
2023-02-06T00:31:20.701Z,103889.44
2023-02-06T00:33:47.915Z,103887.22
2023-02-06T00:36:15.494Z,103874.75
2023-02-06T00:38:42.528Z,103875.19
2023-02-06T00:41:09.424Z,103878.41
2023-02-06T00:43:36.735Z,103881.66
2023-02-06T00:46:03.791Z,103897.63
2023-02-06T00:48:30.820Z,103876.84
2023-02-06T00:50:57.639Z,103893.38
2023-02-06T00:53:24.762Z,103888.78
2023-02-06T00:55:51.920Z,103892.00
2023-02-06T00:58:19.144Z,103895.44
2023-02-06T01:00:46.165Z,103890.88
2023-02-06T01:03:13.113Z,103885.16
2023-02-06T01:05:39.951Z,103892.06
2023-02-06T01:08:06.837Z,103892.88
2023-02-06T01:10:33.764Z,103900.34
2023-02-06T01:13:00.973Z,103883.50
2023-02-06T01:15:27.971Z,103892.53
2023-02-06T01:17:54.760Z,103896.34
2023-02-06T01:20:23.082Z,103906.97
2023-02-06T01:22:49.987Z,103909.72
2023-02-06T01:25:17.419Z,103906.19
2023-02-06T01:27:44.417Z,103920.97
2023-02-06T01:30:11.809Z,103919.91
2023-02-06T01:32:40.490Z,103916.97
2023-02-06T01:35:08.867Z,103924.13
2023-02-06T01:37:36.748Z,103927.69
2023-02-06T01:40:05.128Z,103934.47
2023-02-06T01:42:35.820Z,103928.78
2023-02-06T01:45:21.280Z,103927.25
2023-02-06T01:47:49.423Z,103923.25
2023-02-06T01:50:16.189Z,103921.06
2023-02-06T01:52:43.220Z,103918.19
2023-02-06T01:55:10.080Z,103903.88
2023-02-06T01:57:37.064Z,103917.53
2023-02-06T02:00:27.991Z,103918.28
2023-02-06T02:02:54.772Z,103918.75
2023-02-06T02:05:22.350Z,103908.66
2023-02-06T02:08:01.584Z,103911.00
2023-02-06T02:10:32.492Z,103911.03
2023-02-06T02:12:59.578Z,103908.44
2023-02-06T02:15:42.829Z,103912.59
2023-02-06T02:18:09.634Z,103915.50
2023-02-06T02:20:54.625Z,103915.25
2023-02-06T02:23:33.810Z,103914.13
2023-02-06T02:26:54.972Z,103918.28
2023-02-06T02:29:52.925Z,103919.31
2023-02-06T02:32:34.987Z,103911.53
2023-02-06T02:35:19.217Z,103906.63
2023-02-06T02:38:02.001Z,103914.53
2023-02-06T02:41:05.911Z,103914.66
2023-02-06T02:43:44.250Z,103917.97
2023-02-06T02:46:26.369Z,103918.03
2023-02-06T02:48:55.552Z,103903.31
2023-02-06T02:51:23.287Z,103912.63
2023-02-06T02:53:50.969Z,103903.94
2023-02-06T02:56:20.868Z,103904.47
2023-02-06T02:58:53.133Z,103905.50
2023-02-06T03:01:24.011Z,103904.00
2023-02-06T03:03:53.579Z,103900.00
2023-02-06T03:06:23.866Z,103904.69
2023-02-06T03:09:01.177Z,103888.88
2023-02-06T03:11:28.515Z,103886.47
2023-02-06T03:14:03.854Z,103893.41
2023-02-06T03:16:38.723Z,103881.63
2023-02-06T03:19:14.459Z,103876.38
2023-02-06T03:21:42.006Z,103882.00
2023-02-06T03:24:13.057Z,103880.47
2023-02-06T03:26:40.367Z,103887.16
2023-02-06T03:29:11.324Z,103878.56
2023-02-06T03:31:47.774Z,103878.56
2023-02-06T03:34:22.145Z,103876.63
2023-02-06T03:36:50.144Z,103874.22
2023-02-06T03:39:16.966Z,103874.75
2023-02-06T03:41:44.721Z,103868.34
2023-02-06T03:44:16.436Z,103868.28
2023-02-06T03:46:44.427Z,103865.81
2023-02-06T03:49:13.214Z,103866.69
2023-02-06T03:51:47.847Z,103877.56
2023-02-06T03:54:17.839Z,103872.91
2023-02-06T03:57:01.593Z,103868.63
2023-02-06T03:59:28.782Z,103871.25
2023-02-06T04:01:58.500Z,103871.88
2023-02-06T04:04:29.746Z,103874.72
2023-02-06T04:07:03.206Z,103874.91
2023-02-06T04:09:30.517Z,103879.44
2023-02-06T04:11:57.225Z,103882.34
2023-02-06T04:14:24.404Z,103879.06
2023-02-06T04:16:51.631Z,103871.72
2023-02-06T04:19:18.680Z,103861.84
2023-02-06T04:21:45.942Z,103878.88
2023-02-06T04:24:13.382Z,103867.31
2023-02-06T04:26:40.764Z,103874.53
2023-02-06T04:29:08.277Z,103866.41
2023-02-06T04:31:35.254Z,103871.44
2023-02-06T04:34:02.231Z,103867.75
2023-02-06T04:36:28.991Z,103864.78
2023-02-06T04:38:56.301Z,103869.09
2023-02-06T04:41:23.130Z,103865.25
2023-02-06T04:43:50.078Z,103879.19
2023-02-06T04:46:16.815Z,103878.31
2023-02-06T04:48:43.661Z,103881.22
2023-02-06T04:51:10.563Z,103883.72
2023-02-06T04:53:37.458Z,103868.13
2023-02-06T04:56:10.125Z,103874.88
2023-02-06T04:58:37.538Z,103868.94
2023-02-06T05:01:04.755Z,103874.50
2023-02-06T05:03:31.946Z,103870.59
2023-02-06T05:06:04.718Z,103871.44
2023-02-06T05:08:31.597Z,103855.44
2023-02-06T05:10:58.407Z,103869.31
2023-02-06T05:13:25.811Z,103864.66
2023-02-06T05:15:53.073Z,103871.00
2023-02-06T05:18:19.900Z,103871.47
2023-02-06T05:20:46.826Z,103870.22
2023-02-06T05:23:13.703Z,103855.19
2023-02-06T05:25:42.275Z,103856.63
2023-02-06T05:28:10.118Z,103852.28
2023-02-06T05:30:37.321Z,103859.81
2023-02-06T05:33:04.392Z,103870.66
2023-02-06T05:35:31.967Z,103862.34
2023-02-06T05:37:59.136Z,103875.19
2023-02-06T05:40:26.165Z,103878.03
2023-02-06T05:42:52.982Z,103874.28
2023-02-06T05:45:19.775Z,103877.81
2023-02-06T05:47:46.741Z,103876.97
2023-02-06T05:50:13.666Z,103871.06
2023-02-06T05:52:40.635Z,103869.31
2023-02-06T05:55:08.020Z,103864.91
2023-02-06T05:57:35.643Z,103855.31
2023-02-06T06:00:04.219Z,103855.91
2023-02-06T06:02:38.326Z,103841.47
2023-02-06T06:05:05.506Z,103857.22
2023-02-06T06:07:32.527Z,103865.53
2023-02-06T06:09:59.319Z,103855.41
2023-02-06T06:12:26.242Z,103865.47
2023-02-06T06:14:53.694Z,103880.50
2023-02-06T06:17:21.685Z,103884.22
2023-02-06T06:19:48.942Z,103891.25
2023-02-06T06:22:15.781Z,103880.69
2023-02-06T06:24:42.502Z,103894.19
2023-02-06T06:27:10.725Z,103897.94
2023-02-06T06:29:37.821Z,103897.75
2023-02-06T06:32:04.947Z,103893.47
2023-02-06T06:34:31.932Z,103901.06
2023-02-06T06:36:58.926Z,103901.16
2023-02-06T06:39:25.693Z,103903.94
2023-02-06T06:41:52.496Z,103902.50
2023-02-06T06:44:19.272Z,103903.75
2023-02-06T06:46:46.125Z,103907.69
2023-02-06T06:49:12.897Z,103906.84
2023-02-06T06:51:39.581Z,103895.78
2023-02-06T06:54:07.125Z,103892.25
2023-02-06T06:56:34.876Z,103887.16
2023-02-06T06:59:01.650Z,103882.72
2023-02-06T07:01:28.505Z,103882.16
2023-02-06T07:03:55.527Z,103879.25
2023-02-06T07:06:22.303Z,103881.84
2023-02-06T07:08:49.656Z,103876.94
2023-02-06T07:11:17.032Z,103879.06
2023-02-06T07:13:44.524Z,103868.78
2023-02-06T07:16:12.167Z,103873.00
2023-02-06T07:18:39.927Z,103872.09
2023-02-06T07:21:08.959Z,103862.22
2023-02-06T07:23:38.792Z,103866.56
2023-02-06T07:26:05.899Z,103860.28
2023-02-06T07:28:33.526Z,103855.59
2023-02-06T07:31:05.166Z,103855.06
2023-02-06T07:33:32.857Z,103851.72
2023-02-06T07:36:01.679Z,103856.84
2023-02-06T07:38:31.695Z,103851.72
2023-02-06T07:41:02.802Z,103842.78
2023-02-06T07:43:31.045Z,103852.16
2023-02-06T07:46:07.073Z,103846.03
2023-02-06T07:48:33.910Z,103848.19
2023-02-06T07:51:05.741Z,103845.88
2023-02-06T07:53:32.864Z,103846.75
2023-02-06T07:55:59.704Z,103853.53
2023-02-06T07:58:26.743Z,103857.13
2023-02-06T08:00:56.214Z,103850.16
2023-02-06T08:03:23.745Z,103857.69
2023-02-06T08:05:50.406Z,103855.63
2023-02-06T08:08:17.105Z,103850.75
2023-02-06T08:10:43.809Z,103842.91
2023-02-06T08:13:10.963Z,103838.03
2023-02-06T08:15:40.890Z,103846.09
2023-02-06T08:18:08.151Z,103834.38
2023-02-06T08:20:35.082Z,103841.66
2023-02-06T08:23:01.858Z,103830.84
2023-02-06T08:25:28.584Z,103831.97
2023-02-06T08:27:55.969Z,103830.03
2023-02-06T08:30:23.610Z,103842.09
2023-02-06T08:32:50.518Z,103838.59
2023-02-06T08:35:17.418Z,103845.22
2023-02-06T08:37:44.196Z,103839.31
2023-02-06T08:40:12.049Z,103827.72
2023-02-06T08:42:38.850Z,103823.06
2023-02-06T08:45:06.296Z,103825.31
2023-02-06T08:47:33.352Z,103831.06
2023-02-06T08:50:02.890Z,103815.16
2023-02-06T08:52:30.360Z,103822.38
2023-02-06T08:54:58.175Z,103805.41
2023-02-06T08:57:25.089Z,103818.34
2023-02-06T09:00:01.276Z,103817.78
2023-02-06T09:02:40.877Z,103806.06
2023-02-06T09:05:30.369Z,103808.31
2023-02-06T09:08:01.494Z,103817.19
2023-02-06T09:10:36.716Z,103829.41
2023-02-06T09:13:07.373Z,103826.50
2023-02-06T09:15:34.385Z,103827.25
2023-02-06T09:18:01.443Z,103821.22
2023-02-06T09:20:28.304Z,103829.06
2023-02-06T09:22:55.176Z,103830.16
2023-02-06T09:25:22.471Z,103822.69
2023-02-06T09:27:49.610Z,103824.84
2023-02-06T09:30:16.416Z,103818.56
2023-02-06T09:32:43.430Z,103813.34
2023-02-06T09:35:11.085Z,103816.34
2023-02-06T09:37:38.039Z,103813.44
2023-02-06T09:40:05.398Z,103801.16
2023-02-06T09:42:37.864Z,103804.38
2023-02-06T09:45:09.288Z,103806.69
2023-02-06T09:47:39.704Z,103806.28
2023-02-06T09:50:54.404Z,103810.63
2023-02-06T09:53:26.218Z,103809.38
2023-02-06T09:56:17.731Z,103803.88
2023-02-06T09:58:54.522Z,103813.94
2023-02-06T10:01:33.101Z,103814.34
2023-02-06T10:04:18.413Z,103824.81
2023-02-06T10:07:04.294Z,103810.81
2023-02-06T10:10:00.295Z,103799.03
2023-02-06T10:12:35.129Z,103798.41
2023-02-06T10:15:07.081Z,103803.03
2023-02-06T10:17:37.604Z,103786.53
2023-02-06T10:20:07.478Z,103778.50
2023-02-06T10:22:44.149Z,103779.59
2023-02-06T10:25:57.465Z,103781.63
2023-02-06T10:28:30.303Z,103777.56
2023-02-06T10:31:39.080Z,103792.81
2023-02-06T10:34:29.570Z,103796.47
2023-02-06T10:36:56.458Z,103786.25
2023-02-06T10:39:41.921Z,103786.97
2023-02-06T10:42:36.207Z,103784.88
2023-02-06T10:45:19.312Z,103782.13
2023-02-06T10:47:55.564Z,103791.94
2023-02-06T10:50:36.518Z,103781.41
2023-02-06T10:53:19.282Z,103799.50
2023-02-06T10:55:52.085Z,103791.84
2023-02-06T10:58:40.484Z,103795.50
2023-02-06T11:01:24.703Z,103797.50
2023-02-06T11:03:58.624Z,103782.91
2023-02-06T11:06:27.358Z,103767.28
2023-02-06T11:08:54.208Z,103770.53
2023-02-06T11:11:25.572Z,103770.69
2023-02-06T11:14:06.713Z,103763.72
2023-02-06T11:16:37.609Z,103773.34
2023-02-06T11:19:20.362Z,103777.47
2023-02-06T11:21:51.475Z,103779.09
2023-02-06T11:24:21.266Z,103773.00
2023-02-06T11:26:57.637Z,103781.34
2023-02-06T11:29:37.359Z,103778.75
2023-02-06T11:32:09.286Z,103772.13
2023-02-06T11:34:51.226Z,103776.81
2023-02-06T11:37:38.098Z,103771.84
2023-02-06T11:40:17.416Z,103776.47
2023-02-06T11:42:45.585Z,103764.75
2023-02-06T11:45:39.631Z,103757.44
2023-02-06T11:48:07.891Z,103766.06
2023-02-06T11:50:37.053Z,103766.19
2023-02-06T11:53:15.585Z,103761.84
2023-02-06T11:55:43.385Z,103754.06
2023-02-06T11:58:13.224Z,103759.94
2023-02-06T12:00:42.077Z,103748.34
2023-02-06T12:03:27.292Z,103743.41
2023-02-06T12:05:57.875Z,103745.94
2023-02-06T12:08:34.598Z,103739.69
2023-02-06T12:11:03.736Z,103731.09
2023-02-06T12:13:34.163Z,103725.28
2023-02-06T12:16:02.768Z,103732.34
2023-02-06T12:18:37.704Z,103729.75
2023-02-06T12:21:14.990Z,103720.38
2023-02-06T12:23:53.478Z,103720.41
2023-02-06T12:26:23.302Z,103712.50
2023-02-06T12:28:50.043Z,103712.81
2023-02-06T12:31:21.899Z,103707.94
2023-02-06T12:33:55.304Z,103715.47
2023-02-06T12:36:34.852Z,103709.88
2023-02-06T12:39:03.598Z,103713.34
2023-02-06T12:41:52.294Z,103706.78
2023-02-06T12:44:28.273Z,103709.47
2023-02-06T12:47:06.176Z,103706.28
2023-02-06T12:49:49.959Z,103709.94
2023-02-06T12:52:31.165Z,103697.56
2023-02-06T12:55:04.958Z,103700.16
2023-02-06T12:57:32.182Z,103691.25
2023-02-06T13:00:16.183Z,103697.94
2023-02-06T13:03:20.944Z,103695.81
2023-02-06T13:05:50.687Z,103682.25
2023-02-06T13:08:49.788Z,103688.75
2023-02-06T13:11:37.492Z,103684.50
2023-02-06T13:14:23.780Z,103669.41
2023-02-06T13:16:59.711Z,103667.94
2023-02-06T13:19:37.496Z,103660.88
2023-02-06T13:22:10.570Z,103659.13
2023-02-06T13:24:38.517Z,103655.44
2023-02-06T13:27:08.241Z,103651.34
2023-02-06T13:29:37.622Z,103642.41
2023-02-06T13:32:10.801Z,103636.53
2023-02-06T13:34:41.387Z,103642.31
2023-02-06T13:37:34.101Z,103644.53
2023-02-06T13:40:22.927Z,103638.19
2023-02-06T13:43:13.988Z,103647.47
2023-02-06T13:45:44.943Z,103642.06
2023-02-06T13:48:33.983Z,103636.28
2023-02-06T13:51:31.084Z,103638.25
2023-02-06T13:54:13.526Z,103640.19
2023-02-06T13:56:44.954Z,103625.41
2023-02-06T13:59:37.663Z,103624.88
2023-02-06T14:02:30.131Z,103623.09
2023-02-06T14:04:58.681Z,103609.59
2023-02-06T14:08:05.787Z,103600.91
2023-02-06T14:10:53.850Z,103614.06
2023-02-06T14:13:31.168Z,103603.03
2023-02-06T14:16:30.699Z,103597.28
2023-02-06T14:18:57.421Z,103612.34
2023-02-06T14:21:32.858Z,103619.84
2023-02-06T14:23:59.533Z,103616.41
2023-02-06T14:27:03.516Z,103618.00
2023-02-06T14:29:39.411Z,103609.22
2023-02-06T14:32:19.919Z,103618.66
2023-02-06T14:34:49.724Z,103615.66
2023-02-06T14:37:43.252Z,103614.63
2023-02-06T14:40:22.865Z,103621.66
2023-02-06T14:42:58.248Z,103625.56
2023-02-06T14:45:40.932Z,103610.03
2023-02-06T14:48:21.365Z,103616.91
2023-02-06T14:50:51.285Z,103613.81
2023-02-06T14:53:23.885Z,103631.50
2023-02-06T14:55:51.717Z,103625.06
2023-02-06T14:58:27.571Z,103625.50
2023-02-06T15:01:11.711Z,103626.41
2023-02-06T15:03:40.279Z,103635.81
2023-02-06T15:06:11.007Z,103637.91
2023-02-06T15:08:39.508Z,103636.25
2023-02-06T15:11:19.006Z,103637.09
2023-02-06T15:13:50.487Z,103632.16
2023-02-06T15:16:18.033Z,103632.03
2023-02-06T15:18:44.903Z,103630.81
2023-02-06T15:21:15.895Z,103637.56
2023-02-06T15:24:07.838Z,103633.00
2023-02-06T15:26:49.890Z,103637.59
2023-02-06T15:29:19.533Z,103640.88
2023-02-06T15:31:51.338Z,103641.34
2023-02-06T15:34:20.301Z,103648.19
2023-02-06T15:36:47.443Z,103639.41
2023-02-06T15:39:15.291Z,103647.88
2023-02-06T15:41:44.894Z,103652.22
2023-02-06T15:44:34.510Z,103648.78
2023-02-06T15:47:04.252Z,103652.66
2023-02-06T15:49:41.731Z,103647.25
2023-02-06T15:52:10.090Z,103643.47
2023-02-06T15:54:40.529Z,103641.34
2023-02-06T15:57:22.101Z,103641.84
2023-02-06T15:59:49.353Z,103633.66
2023-02-06T16:02:21.988Z,103630.44
2023-02-06T16:04:51.842Z,103640.72
2023-02-06T16:07:21.400Z,103637.22
2023-02-06T16:09:59.523Z,103634.56
2023-02-06T16:12:26.500Z,103643.94
2023-02-06T16:15:02.162Z,103641.84
2023-02-06T16:17:35.663Z,103641.03
2023-02-06T16:20:26.905Z,103645.84
2023-02-06T16:22:57.268Z,103637.72
2023-02-06T16:25:30.028Z,103643.56
2023-02-06T16:27:57.057Z,103641.22
2023-02-06T16:30:31.134Z,103641.50
2023-02-06T16:33:19.836Z,103631.22
2023-02-06T16:35:46.592Z,103642.94
2023-02-06T16:38:13.385Z,103638.47
2023-02-06T16:40:40.333Z,103627.03
2023-02-06T16:43:11.413Z,103631.69
2023-02-06T16:45:38.329Z,103631.97
2023-02-06T16:48:11.677Z,103627.94
2023-02-06T16:50:42.055Z,103636.28
2023-02-06T16:53:25.689Z,103636.22
2023-02-06T16:55:52.952Z,103631.84
2023-02-06T16:58:23.089Z,103638.09
2023-02-06T17:00:51.329Z,103629.84
2023-02-06T17:03:18.150Z,103634.66
2023-02-06T17:05:47.061Z,103634.56
2023-02-06T17:08:19.461Z,103623.13
2023-02-06T17:10:47.118Z,103632.69
2023-02-06T17:13:21.905Z,103641.50
2023-02-06T17:15:49.317Z,103629.38
2023-02-06T17:18:18.079Z,103629.19
2023-02-06T17:20:48.715Z,103631.66
2023-02-06T17:23:16.097Z,103633.97
2023-02-06T17:25:44.139Z,103622.47
2023-02-06T17:28:16.975Z,103626.22
2023-02-06T17:30:44.803Z,103611.28
2023-02-06T17:33:11.658Z,103627.28
2023-02-06T17:35:38.940Z,103624.59
2023-02-06T17:38:07.486Z,103627.56
2023-02-06T17:40:35.838Z,103633.78
2023-02-06T17:43:04.777Z,103630.63
2023-02-06T17:45:32.856Z,103628.75
2023-02-06T17:48:00.338Z,103635.59
2023-02-06T17:50:28.699Z,103639.41
2023-02-06T17:52:56.219Z,103639.19
2023-02-06T17:55:24.168Z,103633.78
2023-02-06T17:57:56.771Z,103625.91
2023-02-06T18:00:24.401Z,103631.94
2023-02-06T18:02:52.458Z,103642.53
2023-02-06T18:05:20.102Z,103644.16
2023-02-06T18:07:49.583Z,103649.44
2023-02-06T18:10:20.646Z,103640.88
2023-02-06T18:12:48.305Z,103646.53
2023-02-06T18:15:15.491Z,103638.53
2023-02-06T18:17:44.514Z,103642.06
2023-02-06T18:20:12.456Z,103634.19
2023-02-06T18:22:41.395Z,103632.41
2023-02-06T18:25:13.308Z,103617.25
2023-02-06T18:27:41.235Z,103634.56
2023-02-06T18:30:09.451Z,103623.25
2023-02-06T18:32:38.146Z,103631.47
2023-02-06T18:35:08.176Z,103625.25
2023-02-06T18:37:37.859Z,103613.16
2023-02-06T18:40:07.000Z,103602.22
2023-02-06T18:42:54.124Z,103609.63
2023-02-06T18:45:23.152Z,103602.34
2023-02-06T18:47:51.893Z,103612.19
2023-02-06T18:50:24.286Z,103609.41
2023-02-06T18:52:51.596Z,103614.09
2023-02-06T18:55:19.186Z,103606.91
2023-02-06T18:57:46.933Z,103612.06
2023-02-06T19:00:15.621Z,103604.22
2023-02-06T19:02:42.606Z,103595.16
2023-02-06T19:05:09.974Z,103592.13
2023-02-06T19:07:39.940Z,103595.75
2023-02-06T19:10:10.720Z,103584.78
2023-02-06T19:12:38.728Z,103586.66
2023-02-06T19:15:06.101Z,103571.41
2023-02-06T19:17:34.009Z,103569.03
2023-02-06T19:20:01.221Z,103562.25
2023-02-06T19:22:28.189Z,103570.44
2023-02-06T19:24:56.512Z,103569.72
2023-02-06T19:27:23.736Z,103581.00
2023-02-06T19:29:50.509Z,103585.00
2023-02-06T19:32:17.430Z,103577.00
2023-02-06T19:34:45.333Z,103577.78
2023-02-06T19:37:13.007Z,103576.41
2023-02-06T19:39:40.707Z,103563.38
2023-02-06T19:42:09.713Z,103579.22
2023-02-06T19:44:36.743Z,103571.81
2023-02-06T19:47:04.726Z,103574.28
2023-02-06T19:49:31.712Z,103566.31
2023-02-06T19:51:58.662Z,103564.28
2023-02-06T19:54:25.735Z,103562.38
2023-02-06T19:56:52.682Z,103558.28
2023-02-06T19:59:22.643Z,103563.09
2023-02-06T20:01:55.397Z,103562.50
2023-02-06T20:04:25.054Z,103561.91
2023-02-06T20:06:52.468Z,103558.56
2023-02-06T20:09:20.958Z,103555.28
2023-02-06T20:11:49.326Z,103559.28
2023-02-06T20:14:17.501Z,103551.03
2023-02-06T20:16:45.112Z,103549.66
2023-02-06T20:19:16.174Z,103544.13
2023-02-06T20:21:45.274Z,103539.47
2023-02-06T20:24:15.043Z,103543.28
2023-02-06T20:26:43.000Z,103553.03
2023-02-06T20:29:10.570Z,103561.97
2023-02-06T20:31:37.692Z,103565.25
2023-02-06T20:34:05.652Z,103564.94
2023-02-06T20:36:32.418Z,103564.22
2023-02-06T20:39:00.270Z,103561.91
2023-02-06T20:41:30.106Z,103563.88
2023-02-06T20:43:58.715Z,103567.91
2023-02-06T20:46:26.631Z,103563.66
2023-02-06T20:48:56.622Z,103555.88
2023-02-06T20:51:24.306Z,103561.41
2023-02-06T20:53:51.428Z,103559.22
2023-02-06T20:56:19.466Z,103544.59
2023-02-06T20:58:46.973Z,103557.38
2023-02-06T21:01:22.261Z,103568.81
2023-02-06T21:03:49.754Z,103562.75
2023-02-06T21:06:16.556Z,103561.56
2023-02-06T21:08:46.002Z,103564.78
2023-02-06T21:11:13.173Z,103566.50
2023-02-06T21:13:41.162Z,103557.28
2023-02-06T21:16:09.477Z,103554.72
2023-02-06T21:18:38.121Z,103547.78
2023-02-06T21:21:13.689Z,103548.34
2023-02-06T21:23:42.437Z,103549.72
2023-02-06T21:26:11.605Z,103543.22
2023-02-06T21:28:39.538Z,103548.66
2023-02-06T21:31:09.151Z,103545.91
2023-02-06T21:33:37.175Z,103538.72
2023-02-06T21:36:07.069Z,103542.00
2023-02-06T21:38:37.532Z,103536.63
2023-02-06T21:41:12.634Z,103534.44
2023-02-06T21:43:39.650Z,103540.16
2023-02-06T21:46:07.003Z,103531.84
2023-02-06T21:48:34.640Z,103533.53
2023-02-06T21:51:14.950Z,103533.47
2023-02-06T21:53:45.217Z,103523.81
2023-02-06T21:59:30.648Z,103525.88
2023-02-06T22:01:57.695Z,103518.84
2023-02-06T22:04:29.971Z,103505.25
2023-02-06T22:06:59.647Z,103498.34
2023-02-06T22:12:25.495Z,103486.50
2023-02-06T22:15:02.371Z,103475.03
2023-02-06T22:17:32.030Z,103481.16
2023-02-06T22:20:01.330Z,103470.38
2023-02-06T23:39:25.366Z,103514.72
2023-02-06T23:41:52.371Z,103534.88
2023-02-06T23:44:19.398Z,103524.03
2023-02-06T23:46:46.279Z,103527.53
2023-02-06T23:49:13.068Z,103520.81
2023-02-06T23:51:39.971Z,103528.84
2023-02-06T23:54:07.972Z,103530.22
2023-02-06T23:56:35.117Z,103526.28
2023-02-06T23:59:02.729Z,103534.22
